createdAt,value
2019-01-26T00:00:43.073Z,51.27
2019-01-26T00:05:40.019Z,50.73
2019-01-26T00:10:36.911Z,43.83
2019-01-26T00:15:34.012Z,50.73
2019-01-26T00:20:31.000Z,51.83
2019-01-26T00:25:28.138Z,49.03
2019-01-26T00:30:25.036Z,50.67
2019-01-26T00:35:22.448Z,55.13
2019-01-26T00:40:20.224Z,49.97
2019-01-26T00:45:17.188Z,52.40
2019-01-26T00:50:14.388Z,49.27
2019-01-26T00:55:12.121Z,54.93
2019-01-26T01:00:19.154Z,53.47
2019-01-26T01:05:16.681Z,48.10
2019-01-26T01:10:17.429Z,53.67
2019-01-26T01:15:20.074Z,49.40
2019-01-26T01:20:18.189Z,55.50
2019-01-26T01:25:15.141Z,49.60
2019-01-26T01:30:23.556Z,51.13
2019-01-26T01:35:20.477Z,51.37
2019-01-26T01:40:17.735Z,52.17
2019-01-26T01:45:18.199Z,50.67
2019-01-26T01:50:15.250Z,50.33
2019-01-26T01:55:12.748Z,48.50
2019-01-26T02:00:19.936Z,54.20
2019-01-26T02:05:17.175Z,50.93
2019-01-26T02:10:18.315Z,50.77
2019-01-26T02:15:15.238Z,49.00
2019-01-26T02:20:16.488Z,52.53
2019-01-26T02:25:13.387Z,48.10
2019-01-26T02:30:17.196Z,48.40
2019-01-26T02:35:14.113Z,55.30
2019-01-26T02:40:13.948Z,52.13
2019-01-26T02:45:13.164Z,51.03
2019-01-26T02:50:16.612Z,52.00
2019-01-26T02:55:13.720Z,51.97
2019-01-26T03:00:22.500Z,52.37
2019-01-26T03:05:19.413Z,53.23
2019-01-26T03:10:19.480Z,52.30
2019-01-26T03:15:19.673Z,56.07
2019-01-26T03:20:17.532Z,53.73
2019-01-26T03:25:15.526Z,57.13
2019-01-26T03:30:17.104Z,55.83
2019-01-26T03:35:14.100Z,54.07
2019-01-26T03:40:18.207Z,51.67
2019-01-26T03:45:16.410Z,44.47
2019-01-26T03:50:15.230Z,54.20
2019-01-26T03:55:20.247Z,56.27
2019-01-26T04:00:23.914Z,57.03
2019-01-26T04:05:21.026Z,54.90
2019-01-26T04:10:18.072Z,55.30
2019-01-26T04:15:17.992Z,53.97
2019-01-26T04:20:20.217Z,52.47
2019-01-26T04:25:17.122Z,49.13
2019-01-26T04:30:18.794Z,44.50
2019-01-26T04:35:15.898Z,47.77
2019-01-26T04:40:15.933Z,47.57
2019-01-26T04:45:19.309Z,49.60
2019-01-26T04:50:18.358Z,49.70
2019-01-26T04:55:18.293Z,48.70
2019-01-26T05:00:26.128Z,40.93
2019-01-26T05:05:23.129Z,36.10
2019-01-26T05:10:20.593Z,30.80
2019-01-26T05:15:18.235Z,33.10
2019-01-26T05:20:21.380Z,32.27
2019-01-26T05:25:18.301Z,23.27
2019-01-26T05:30:19.136Z,23.53
2019-01-26T05:35:16.032Z,27.50
2019-01-26T05:40:15.989Z,28.37
2019-01-26T05:45:16.489Z,26.80
2019-01-26T05:50:17.579Z,25.67
2019-01-26T05:55:14.494Z,24.77
2019-01-26T06:00:20.173Z,24.60
2019-01-26T06:05:17.289Z,24.70
2019-01-26T06:10:14.240Z,23.50
2019-01-26T06:15:11.538Z,26.33
2019-01-26T06:20:12.093Z,25.73
2019-01-26T06:25:15.985Z,25.90
2019-01-26T06:30:22.586Z,27.03
2019-01-26T06:35:19.490Z,31.03
2019-01-26T06:40:18.734Z,30.63
2019-01-26T06:45:18.046Z,26.20
2019-01-26T06:50:19.877Z,20.93
2019-01-26T06:55:16.789Z,23.63
2019-01-26T07:00:17.632Z,23.97
2019-01-26T07:05:16.746Z,24.07
2019-01-26T07:10:14.110Z,25.67
2019-01-26T07:15:11.720Z,26.50
2019-01-26T07:20:15.292Z,21.23
2019-01-26T07:25:12.201Z,22.20
2019-01-26T07:30:19.917Z,23.33
2019-01-26T07:35:17.016Z,23.03
2019-01-26T07:40:22.072Z,21.77
2019-01-26T07:45:19.081Z,26.60
2019-01-26T07:50:19.974Z,21.37
2019-01-26T07:55:16.875Z,23.83
2019-01-26T08:00:18.437Z,21.97
2019-01-26T08:05:15.649Z,23.23
2019-01-26T08:10:16.676Z,20.70
2019-01-26T08:15:17.925Z,22.63
2019-01-26T08:20:18.288Z,22.50
2019-01-26T08:25:15.525Z,28.83
2019-01-26T08:30:16.785Z,21.10
2019-01-26T08:35:13.697Z,19.80
2019-01-26T08:40:14.339Z,20.60
2019-01-26T08:45:13.248Z,18.67
2019-01-26T08:50:14.467Z,16.60
2019-01-26T08:55:18.147Z,17.23
2019-01-26T09:00:26.698Z,17.13
2019-01-26T09:05:25.416Z,16.60
2019-01-26T09:10:22.374Z,16.47
2019-01-26T09:15:19.303Z,17.87
2019-01-26T09:20:17.221Z,19.43
2019-01-26T09:25:14.241Z,17.80
2019-01-26T09:30:16.280Z,23.00
2019-01-26T09:35:13.325Z,19.40
2019-01-26T09:40:21.973Z,20.10
2019-01-26T09:45:20.217Z,23.40
2019-01-26T09:50:19.157Z,33.57
2019-01-26T09:55:18.603Z,69.93
2019-01-26T10:00:22.252Z,47.07
2019-01-26T10:05:19.258Z,25.17
2019-01-26T10:10:16.601Z,23.50
2019-01-26T10:15:23.221Z,22.67
2019-01-26T10:20:27.724Z,21.83
2019-01-26T10:25:24.641Z,21.30
2019-01-26T10:30:27.553Z,19.67
2019-01-26T10:35:26.328Z,19.03
2019-01-26T10:40:41.985Z,19.40
2019-01-26T10:45:39.080Z,16.97
2019-01-26T10:50:36.049Z,20.27
2019-01-26T10:55:33.003Z,18.93
2019-01-26T11:00:30.033Z,24.83
2019-01-26T11:05:26.973Z,20.53
2019-01-26T11:10:24.130Z,23.57
2019-01-26T11:15:21.028Z,20.17
2019-01-26T11:20:18.014Z,19.60
2019-01-26T11:25:15.404Z,18.73
2019-01-26T11:30:17.398Z,18.57
2019-01-26T11:35:17.304Z,24.17
2019-01-26T11:40:16.386Z,20.10
2019-01-26T11:45:16.739Z,20.27
2019-01-26T11:50:24.364Z,21.87
2019-01-26T11:55:23.058Z,21.33
2019-01-26T12:00:31.206Z,25.40
2019-01-26T12:05:29.944Z,22.07
2019-01-26T12:10:26.851Z,20.80
2019-01-26T12:15:24.401Z,20.27
2019-01-26T12:20:21.304Z,23.63
2019-01-26T12:25:18.293Z,22.77
2019-01-26T12:30:15.458Z,21.53
2019-01-26T12:35:14.293Z,24.40
2019-01-26T12:40:14.407Z,21.07
2019-01-26T12:45:16.301Z,23.60
2019-01-26T12:50:13.423Z,24.10
2019-01-26T12:55:16.060Z,23.30
2019-01-26T13:00:23.074Z,22.53
2019-01-26T13:05:20.269Z,23.90
2019-01-26T13:10:25.649Z,21.00
2019-01-26T13:15:22.850Z,21.73
2019-01-26T13:20:20.491Z,24.47
2019-01-26T13:25:18.238Z,24.57
2019-01-26T13:30:24.312Z,21.20
2019-01-26T13:35:21.233Z,22.70
2019-01-26T13:40:27.920Z,22.57
2019-01-26T13:45:24.841Z,22.53
2019-01-26T13:50:21.797Z,21.97
2019-01-26T13:55:21.011Z,20.97
2019-01-26T14:00:36.273Z,21.67
2019-01-26T14:05:33.198Z,23.67
2019-01-26T14:10:31.639Z,24.90
2019-01-26T14:15:28.644Z,25.67
2019-01-26T14:20:27.478Z,25.20
2019-01-26T14:25:25.838Z,24.37
2019-01-26T14:30:37.119Z,24.10
2019-01-26T14:35:34.024Z,23.57
2019-01-26T14:40:31.345Z,23.87
2019-01-26T14:45:29.188Z,24.53
2019-01-26T14:50:26.493Z,26.03
2019-01-26T14:55:28.826Z,26.70
2019-01-26T15:00:29.613Z,23.47
2019-01-26T15:05:27.237Z,23.10
2019-01-26T15:10:24.391Z,24.23
2019-01-26T15:15:21.485Z,25.07
2019-01-26T15:20:35.434Z,22.90
2019-01-26T15:25:32.440Z,22.87
2019-01-26T15:30:38.497Z,21.93
2019-01-26T15:35:35.417Z,23.17
2019-01-26T15:40:32.375Z,21.67
2019-01-26T15:45:36.655Z,22.73
2019-01-26T15:50:33.660Z,24.17
2019-01-26T15:55:30.610Z,25.20
2019-01-26T16:00:40.458Z,25.30
2019-01-26T16:05:37.601Z,26.10
2019-01-26T16:10:34.544Z,25.17
2019-01-26T16:15:34.965Z,23.73
2019-01-26T16:20:31.921Z,24.53
2019-01-26T16:25:29.005Z,24.10
2019-01-26T16:30:29.866Z,27.43
2019-01-26T16:35:26.959Z,81.57
2019-01-26T16:40:30.223Z,41.63
2019-01-26T16:45:30.733Z,29.17
2019-01-26T16:50:29.978Z,31.50
2019-01-26T16:55:27.005Z,30.10
2019-01-26T17:00:38.459Z,34.07
2019-01-26T17:05:35.369Z,28.80
2019-01-26T17:10:34.321Z,51.73
2019-01-26T17:15:31.602Z,88.97
2019-01-26T17:20:37.849Z,87.13
2019-01-26T17:25:34.748Z,66.90
2019-01-26T17:30:39.013Z,44.27
2019-01-26T17:35:36.607Z,35.30
2019-01-26T17:40:33.704Z,33.37
2019-01-26T17:45:30.598Z,36.60
2019-01-26T17:50:28.345Z,39.03
2019-01-26T17:55:25.269Z,38.57
2019-01-26T18:00:33.269Z,37.40
2019-01-26T18:05:31.104Z,33.23
2019-01-26T18:10:28.062Z,31.90
2019-01-26T18:15:25.012Z,27.30
2019-01-26T18:20:25.525Z,26.20
2019-01-26T18:25:24.343Z,27.30
2019-01-26T18:30:29.516Z,25.63
2019-01-26T18:35:26.438Z,25.43
2019-01-26T18:40:28.766Z,27.77
2019-01-26T18:45:30.731Z,29.73
2019-01-26T18:50:41.066Z,30.90
2019-01-26T18:55:38.137Z,28.03
2019-01-26T19:00:42.256Z,29.37
2019-01-26T19:05:39.227Z,27.63
2019-01-26T19:10:36.173Z,30.00
2019-01-26T19:15:33.107Z,30.27
2019-01-26T19:20:30.144Z,31.63
2019-01-26T19:25:27.045Z,29.67
2019-01-26T19:30:24.134Z,26.47
2019-01-26T19:35:21.189Z,29.33
2019-01-26T19:40:22.986Z,29.60
2019-01-26T19:45:23.666Z,26.93
2019-01-26T19:50:23.832Z,31.77
2019-01-26T19:55:22.769Z,25.60
2019-01-26T20:00:20.071Z,27.07
2019-01-26T20:05:24.381Z,24.00
2019-01-26T20:10:22.010Z,26.47
2019-01-26T20:15:23.864Z,25.97
2019-01-26T20:20:28.873Z,22.93
2019-01-26T20:25:26.000Z,25.57
2019-01-26T20:30:30.632Z,22.33
2019-01-26T20:35:27.543Z,23.53
2019-01-26T20:40:24.604Z,23.17
2019-01-26T20:45:24.901Z,27.07
2019-01-26T20:50:21.972Z,27.20
2019-01-26T20:55:19.106Z,24.10
2019-01-26T21:00:27.016Z,22.73
2019-01-26T21:05:24.229Z,23.33
2019-01-26T21:10:24.378Z,22.43
2019-01-26T21:15:22.944Z,24.37
2019-01-26T21:20:22.725Z,24.13
2019-01-26T21:25:19.830Z,25.07
2019-01-26T21:30:25.576Z,25.50
2019-01-26T21:35:23.464Z,25.40
2019-01-26T21:40:28.803Z,26.20
2019-01-26T21:45:25.736Z,24.47
2019-01-26T21:50:28.349Z,26.77
2019-01-26T21:55:25.270Z,22.93
2019-01-26T22:00:25.593Z,22.57
2019-01-26T22:05:22.490Z,24.33
2019-01-26T22:10:24.009Z,23.67
2019-01-26T22:15:22.522Z,23.67
2019-01-26T22:20:26.133Z,25.37
2019-01-26T22:25:23.445Z,25.10
2019-01-26T22:30:23.304Z,24.63
2019-01-26T22:35:20.715Z,25.30
2019-01-26T22:40:24.078Z,23.53
2019-01-26T22:45:21.776Z,24.47
2019-01-26T22:50:24.909Z,22.57
2019-01-26T22:55:22.101Z,25.17
2019-01-26T23:00:45.570Z,23.83
2019-01-26T23:06:06.130Z,25.23
2019-01-26T23:11:11.759Z,24.83
2019-01-26T23:16:44.189Z,25.30
2019-01-26T23:21:58.507Z,23.40
2019-01-26T23:27:13.181Z,24.57
2019-01-26T23:32:10.104Z,23.93
2019-01-26T23:37:07.089Z,26.60
2019-01-26T23:42:03.987Z,26.27
2019-01-26T23:47:00.937Z,28.33
2019-01-26T23:51:57.830Z,24.17
2019-01-26T23:56:54.836Z,23.13
